Time;durP1;ratioP1;P1;durP2;ratioP2;P2;SDS_P1;SDS_P2;PMS_P1;PMS_P2;Temp;Humidity;BMP_temperature;BMP_pressure;BME280_temperature;BME280_humidity;BME280_pressure;Samples;Min_cycle;Max_cycle;Signal;HPM_P1;HPM_P2
2022/05/17 00:02:12;;;;;;;19.17;14.10;;;19.10;99.90;;;;;;5041893;28;20032;-90
2022/05/17 00:04:41;;;;;;;15.55;13.57;;;19.10;99.90;;;;;;5048020;28;20447;-86
2022/05/17 00:07:11;;;;;;;19.80;14.10;;;19.00;99.90;;;;;;5040432;28;20059;-87
2022/05/17 00:09:37;;;;;;;16.35;13.07;;;19.00;99.90;;;;;;5038266;28;20029;-87
2022/05/17 00:12:04;;;;;;;22.35;13.60;;;18.90;99.90;;;;;;5038603;28;20030;-89
2022/05/17 00:14:32;;;;;;;15.80;13.50;;;18.90;99.90;;;;;;5044928;28;20048;-88
2022/05/17 00:16:58;;;;;;;15.80;13.48;;;18.90;99.90;;;;;;5039242;28;20036;-88
2022/05/17 00:19:24;;;;;;;17.48;13.80;;;18.90;99.90;;;;;;5018040;28;20052;-87
2022/05/17 00:21:51;;;;;;;14.98;13.43;;;18.80;99.90;;;;;;5022217;28;20036;-86
2022/05/17 00:24:19;;;;;;;19.95;13.15;;;18.80;99.90;;;;;;5036577;28;20040;-89
2022/05/17 00:26:45;;;;;;;18.33;13.57;;;18.70;99.90;;;;;;5018999;28;20124;-90
2022/05/17 00:29:14;;;;;;;15.80;13.30;;;18.70;99.90;;;;;;5036941;28;20434;-90
2022/05/17 00:31:40;;;;;;;17.92;13.65;;;18.60;99.90;;;;;;5041768;28;20035;-87
2022/05/17 00:34:07;;;;;;;15.50;13.40;;;18.60;99.90;;;;;;5038699;28;20028;-90
2022/05/17 00:36:34;;;;;;;13.85;12.45;;;18.50;99.90;;;;;;5023852;28;20094;-90
2022/05/17 00:39:00;;;;;;;17.55;12.45;;;18.50;99.90;;;;;;5040027;28;20028;-89
2022/05/17 00:41:29;;;;;;;16.88;12.55;;;18.50;99.90;;;;;;5041638;28;20020;-87
2022/05/17 00:47:06;;;;;;;13.48;12.10;;;18.50;99.90;;;;;;5039457;28;20442;-89
2022/05/17 00:49:39;;;;;;;13.15;11.52;;;18.50;99.90;;;;;;5024010;28;20166;-87
2022/05/17 00:52:11;;;;;;;13.13;11.93;;;18.50;99.90;;;;;;5037242;28;20084;-89
2022/05/17 00:54:40;;;;;;;18.58;13.07;;;18.50;99.90;;;;;;5035266;28;20037;-90
2022/05/17 00:57:16;;;;;;;13.75;11.85;;;18.50;99.90;;;;;;5038401;28;20037;-89
2022/05/17 00:59:43;;;;;;;14.95;12.30;;;18.50;99.90;;;;;;5035850;28;20494;-92
2022/05/17 01:02:10;;;;;;;13.43;12.02;;;18.50;99.90;;;;;;5039605;28;20067;-90
2022/05/17 01:04:38;;;;;;;16.27;11.63;;;18.50;99.90;;;;;;5044175;28;20018;-90
2022/05/17 01:07:11;;;;;;;19.55;11.60;;;18.50;99.90;;;;;;5016078;28;20029;-90
2022/05/17 01:09:37;;;;;;;13.15;11.07;;;18.50;99.90;;;;;;5044215;28;20074;-91
2022/05/17 01:12:03;;;;;;;11.60;10.43;;;18.50;99.90;;;;;;5024973;28;20490;-90
2022/05/17 01:17:13;;;;;;;12.77;10.10;;;18.50;99.90;;;;;;5038298;28;20167;-88
2022/05/17 01:19:41;;;;;;;11.43;9.02;;;18.50;99.90;;;;;;5035443;28;20116;-87
2022/05/17 01:22:06;;;;;;;10.90;9.32;;;18.50;99.90;;;;;;5039683;28;20029;-88
2022/05/17 01:24:32;;;;;;;13.65;9.82;;;18.50;99.90;;;;;;5037069;28;20108;-86
2022/05/17 01:27:08;;;;;;;15.48;9.55;;;18.50;99.90;;;;;;5037932;28;20034;-88
2022/05/17 01:29:39;;;;;;;14.52;8.27;;;18.50;99.90;;;;;;5044109;28;20079;-89
2022/05/17 01:32:06;;;;;;;12.75;9.40;;;18.40;99.90;;;;;;5020176;28;20396;-88
2022/05/17 01:34:37;;;;;;;13.77;9.48;;;18.40;99.90;;;;;;5036592;28;20109;-89
2022/05/17 01:37:04;;;;;;;11.90;9.20;;;18.40;99.90;;;;;;5037693;28;20030;-89
2022/05/17 01:39:31;;;;;;;12.45;8.65;;;18.40;99.90;;;;;;5036963;28;20029;-89
2022/05/17 01:41:57;;;;;;;12.40;8.25;;;18.30;99.90;;;;;;5042933;28;20025;-89
2022/05/17 01:44:23;;;;;;;11.30;8.40;;;18.30;99.90;;;;;;5022095;28;20033;-88
2022/05/17 01:46:49;;;;;;;9.52;7.10;;;18.30;99.90;;;;;;5044421;28;20465;-88
2022/05/17 01:49:15;;;;;;;13.32;8.57;;;18.30;99.90;;;;;;5039755;28;20056;-89
2022/05/17 01:51:41;;;;;;;10.68;7.88;;;18.30;99.90;;;;;;5044631;28;20048;-89
2022/05/17 01:54:07;;;;;;;10.10;7.90;;;18.40;99.90;;;;;;5047857;28;20021;-89
2022/05/17 01:56:33;;;;;;;10.73;7.40;;;18.40;99.90;;;;;;5041270;28;20543;-89
2022/05/17 01:58:59;;;;;;;10.95;8.40;;;18.40;99.90;;;;;;5041584;28;20037;-88
2022/05/17 02:01:26;;;;;;;9.45;8.10;;;18.30;99.90;;;;;;5042400;28;20512;-87
2022/05/17 02:03:52;;;;;;;10.88;8.38;;;18.30;99.90;;;;;;5042678;28;20483;-88
2022/05/17 02:06:18;;;;;;;10.43;8.45;;;18.40;99.90;;;;;;5044282;28;20029;-88
2022/05/17 02:08:44;;;;;;;11.18;8.05;;;18.40;99.90;;;;;;5041991;28;20116;-87
2022/05/17 02:11:10;;;;;;;10.07;7.97;;;18.40;99.90;;;;;;5042980;28;20109;-87
2022/05/17 02:13:38;;;;;;;10.82;7.70;;;18.40;99.90;;;;;;5043145;28;20365;-87
2022/05/17 02:16:07;;;;;;;10.25;7.90;;;18.40;99.90;;;;;;5038359;28;20055;-86
2022/05/17 02:18:33;;;;;;;9.45;7.13;;;18.40;99.90;;;;;;5041875;28;20033;-87
2022/05/17 02:20:59;;;;;;;13.80;7.03;;;18.40;99.90;;;;;;5021552;28;20491;-88
2022/05/17 02:23:25;;;;;;;14.13;7.30;;;18.40;99.90;;;;;;5044074;28;20103;-89
2022/05/17 02:25:50;;;;;;;17.27;7.13;;;18.40;99.90;;;;;;5039738;28;20480;-89
2022/05/17 02:28:16;;;;;;;9.73;6.95;;;18.40;99.90;;;;;;5025739;28;20044;-89
2022/05/17 02:30:43;;;;;;;10.68;8.18;;;18.40;99.90;;;;;;5028218;28;20610;-88
2022/05/17 02:33:10;;;;;;;14.68;7.65;;;18.40;99.90;;;;;;5026923;28;20043;-89
2022/05/17 02:35:36;;;;;;;11.55;7.00;;;18.40;99.90;;;;;;5045256;28;20026;-88
2022/05/17 02:38:02;;;;;;;13.13;7.10;;;18.40;99.90;;;;;;5043787;28;20049;-88
2022/05/17 02:40:28;;;;;;;10.00;7.40;;;18.40;99.90;;;;;;5025808;28;20541;-90
2022/05/17 02:42:54;;;;;;;9.57;7.18;;;18.30;99.90;;;;;;5021004;28;20029;-91
2022/05/17 02:45:19;;;;;;;11.32;7.45;;;18.30;99.90;;;;;;5041307;28;20033;-92
2022/05/17 02:47:45;;;;;;;10.25;7.28;;;18.30;99.90;;;;;;5028219;28;20025;-92
2022/05/17 02:50:11;;;;;;;8.45;7.05;;;18.40;99.90;;;;;;5035529;28;20519;-91
2022/05/17 02:52:38;;;;;;;8.60;7.20;;;18.30;99.90;;;;;;5045696;28;20100;-91
2022/05/17 02:55:06;;;;;;;7.80;7.07;;;18.30;99.90;;;;;;5036012;28;20021;-89
2022/05/17 02:57:32;;;;;;;10.23;7.15;;;18.30;99.90;;;;;;5041434;28;21324;-88
2022/05/17 02:59:58;;;;;;;9.80;6.72;;;18.30;99.90;;;;;;5047084;28;20017;-89
2022/05/17 03:02:24;;;;;;;8.68;6.75;;;18.30;99.90;;;;;;5022510;28;20032;-91
2022/05/17 03:04:50;;;;;;;11.13;7.38;;;18.40;99.90;;;;;;5045866;28;20432;-90
2022/05/17 03:07:15;;;;;;;13.55;7.07;;;18.40;99.90;;;;;;5043436;28;20044;-90
2022/05/17 03:09:41;;;;;;;11.98;7.65;;;18.40;99.90;;;;;;5042362;28;20099;-91
2022/05/17 03:12:07;;;;;;;10.07;7.97;;;18.40;99.90;;;;;;5038890;28;20029;-91
2022/05/17 03:14:33;;;;;;;14.80;9.63;;;18.40;99.90;;;;;;5045027;28;20139;-91
2022/05/17 03:16:58;;;;;;;18.88;9.52;;;18.30;99.90;;;;;;5041125;28;20563;-90
2022/05/17 03:19:24;;;;;;;15.55;9.60;;;18.20;99.90;;;;;;5028867;28;20029;-89
2022/05/17 03:21:50;;;;;;;10.20;8.70;;;18.10;99.90;;;;;;5023351;28;20029;-90
2022/05/17 03:24:16;;;;;;;11.77;9.02;;;18.10;99.90;;;;;;5036572;28;20025;-89
2022/05/17 03:26:42;;;;;;;10.23;7.53;;;18.10;99.90;;;;;;5045253;28;20029;-91
2022/05/17 03:29:10;;;;;;;10.90;8.57;;;18.00;99.90;;;;;;5036810;28;20022;-91
2022/05/17 03:31:36;;;;;;;12.23;8.10;;;18.00;99.90;;;;;;5017758;28;20029;-91
2022/05/17 03:34:02;;;;;;;9.68;8.25;;;17.90;99.90;;;;;;5025772;28;20032;-91
2022/05/17 03:36:28;;;;;;;10.65;8.75;;;17.90;99.90;;;;;;5036438;28;20086;-87
2022/05/17 03:38:54;;;;;;;10.52;8.80;;;17.90;99.90;;;;;;5038630;28;20436;-89
2022/05/17 03:41:20;;;;;;;10.32;8.95;;;17.90;99.90;;;;;;5038470;28;20032;-88
2022/05/17 03:43:46;;;;;;;9.82;8.45;;;17.90;99.90;;;;;;5043405;28;20252;-89
2022/05/17 03:46:12;;;;;;;12.73;9.45;;;18.00;99.90;;;;;;5045507;28;20029;-89
2022/05/17 03:48:38;;;;;;;12.10;9.23;;;18.10;99.90;;;;;;5039125;28;20041;-88
2022/05/17 03:51:15;;;;;;;11.30;8.10;;;18.10;99.90;;;;;;5041930;28;20430;-89
2022/05/17 03:53:44;;;;;;;10.32;7.97;;;18.20;99.90;;;;;;5036686;28;20055;-89
2022/05/17 03:56:10;;;;;;;11.57;8.18;;;18.20;99.90;;;;;;5041315;28;20025;-89
2022/05/17 03:58:48;;;;;;;10.43;8.32;;;18.20;99.90;;;;;;5037984;28;20284;-88
2022/05/17 04:01:14;;;;;;;10.98;7.75;;;18.20;99.90;;;;;;5022549;28;20017;-89
2022/05/17 04:03:40;;;;;;;10.00;7.65;;;18.30;99.90;;;;;;5038708;28;20032;-89
2022/05/17 04:06:06;;;;;;;11.77;8.95;;;18.30;99.90;;;;;;5038804;28;20044;-88
2022/05/17 04:08:33;;;;;;;8.07;7.28;;;18.40;99.90;;;;;;5038450;28;20436;-87
2022/05/17 04:11:00;;;;;;;9.57;8.27;;;18.40;99.90;;;;;;5037423;28;20108;-87
2022/05/17 04:13:29;;;;;;;8.98;8.18;;;18.40;99.90;;;;;;5041164;28;20029;-87
2022/05/17 04:15:56;;;;;;;8.85;7.93;;;18.50;99.90;;;;;;5021885;28;20031;-88
2022/05/17 04:18:22;;;;;;;11.88;8.82;;;18.50;99.90;;;;;;5022179;28;20025;-87
2022/05/17 04:20:48;;;;;;;11.02;7.93;;;18.60;99.90;;;;;;5034129;28;20722;-89
2022/05/17 04:23:14;;;;;;;11.38;7.70;;;18.60;99.90;;;;;;5040514;28;20036;-89
2022/05/17 04:25:40;;;;;;;7.93;7.00;;;18.70;99.90;;;;;;5034626;28;20033;-89
2022/05/17 04:28:06;;;;;;;8.57;6.70;;;18.70;99.90;;;;;;5022945;28;20075;-87
2022/05/17 04:30:32;;;;;;;9.90;6.75;;;18.80;99.90;;;;;;5025143;28;20021;-88
2022/05/17 04:33:01;;;;;;;15.52;6.40;;;18.80;99.90;;;;;;5023824;28;20468;-89
2022/05/17 04:35:27;;;;;;;7.05;6.13;;;18.90;99.90;;;;;;5047662;28;20060;-87
2022/05/17 04:37:53;;;;;;;10.00;6.90;;;19.00;99.90;;;;;;5038153;28;20061;-87
2022/05/17 04:40:20;;;;;;;7.35;6.63;;;19.10;99.90;;;;;;5041922;28;20076;-89
2022/05/17 04:42:47;;;;;;;10.07;7.03;;;19.20;99.90;;;;;;5041059;28;20459;-87
2022/05/17 04:45:17;;;;;;;11.15;7.40;;;19.30;99.90;;;;;;5038411;28;20047;-89
2022/05/17 04:47:43;;;;;;;13.35;7.05;;;19.20;99.90;;;;;;5043560;28;20024;-89
2022/05/17 04:50:12;;;;;;;13.93;6.90;;;19.20;99.90;;;;;;5042924;28;20045;-89
2022/05/17 04:52:38;;;;;;;12.43;6.68;;;19.20;99.90;;;;;;5031418;28;20029;-89
2022/05/17 04:55:06;;;;;;;11.90;7.32;;;19.30;99.90;;;;;;5026147;28;20032;-87
2022/05/17 04:57:32;;;;;;;10.98;6.63;;;19.30;99.90;;;;;;5039544;28;20037;-88
2022/05/17 04:59:59;;;;;;;12.52;6.13;;;19.40;99.90;;;;;;5043992;28;20029;-87
2022/05/17 05:02:25;;;;;;;11.02;6.25;;;19.50;99.90;;;;;;5039851;28;20029;-88
2022/05/17 05:04:51;;;;;;;8.75;6.40;;;19.60;99.90;;;;;;5035374;28;20099;-88
2022/05/17 05:07:16;;;;;;;7.68;6.57;;;19.80;99.90;;;;;;5021690;28;20065;-89
2022/05/17 05:09:42;;;;;;;9.90;7.13;;;20.00;99.90;;;;;;5016616;28;20496;-89
2022/05/17 05:12:08;;;;;;;17.00;7.32;;;20.10;99.90;;;;;;5038349;28;20036;-88
2022/05/17 05:14:34;;;;;;;10.15;7.07;;;20.30;99.90;;;;;;5036149;28;20040;-90
2022/05/17 05:16:59;;;;;;;8.40;5.97;;;20.40;99.90;;;;;;5038694;28;20041;-89
2022/05/17 05:19:25;;;;;;;10.43;6.03;;;20.50;99.90;;;;;;5035766;28;20061;-91
2022/05/17 05:21:51;;;;;;;9.23;6.25;;;20.60;99.90;;;;;;5043540;28;20061;-91
2022/05/17 05:24:16;;;;;;;10.32;5.82;;;20.60;99.90;;;;;;5035464;28;20025;-92
2022/05/17 05:26:42;;;;;;;7.53;5.60;;;20.60;99.90;;;;;;5039250;28;20041;-90
2022/05/17 05:29:08;;;;;;;20.67;13.43;;;20.60;99.90;;;;;;5036203;28;20025;-90
2022/05/17 05:31:33;;;;;;;12.13;8.40;;;20.50;99.90;;;;;;5035711;28;20041;-91
2022/05/17 05:34:02;;;;;;;14.25;7.72;;;20.50;99.90;;;;;;5037241;28;20041;-90
2022/05/17 05:36:28;;;;;;;13.45;9.77;;;20.60;99.90;;;;;;5037957;28;20029;-89
2022/05/17 05:38:55;;;;;;;86.22;31.27;;;20.70;99.90;;;;;;5039677;28;20037;-90
2022/05/17 05:41:20;;;;;;;24.25;9.93;;;21.00;99.90;;;;;;5023463;28;20506;-89
2022/05/17 05:43:46;;;;;;;14.25;7.85;;;21.10;99.90;;;;;;5042960;28;20045;-90
2022/05/17 05:46:12;;;;;;;26.13;12.65;;;21.20;99.90;;;;;;5047156;28;20041;-91
2022/05/17 05:48:38;;;;;;;18.45;11.68;;;21.30;99.90;;;;;;5036158;28;20106;-91
2022/05/17 05:51:04;;;;;;;22.48;12.02;;;21.40;99.90;;;;;;5036529;28;20045;-93
2022/05/17 05:53:29;;;;;;;15.55;10.80;;;21.50;99.90;;;;;;5037730;28;20143;-91
2022/05/17 05:56:01;;;;;;;16.27;9.68;;;21.60;99.90;;;;;;5017873;28;20088;-91
2022/05/17 05:58:32;;;;;;;16.73;10.23;;;21.80;99.90;;;;;;5021933;28;20139;-90
2022/05/17 06:00:57;;;;;;;21.33;10.35;;;22.00;99.90;;;;;;5012822;28;20476;-90
2022/05/17 06:03:25;;;;;;;16.65;9.63;;;22.20;99.90;;;;;;5039715;28;20036;-89
2022/05/17 06:05:51;;;;;;;14.68;9.48;;;22.40;99.90;;;;;;5039338;28;20022;-87
2022/05/17 06:08:17;;;;;;;17.15;8.48;;;22.60;99.90;;;;;;5019758;28;20100;-89
2022/05/17 06:10:43;;;;;;;11.00;8.13;;;22.70;99.90;;;;;;5037797;28;20056;-90
2022/05/17 06:13:10;;;;;;;12.13;8.50;;;22.80;99.90;;;;;;5037070;28;20064;-89
2022/05/17 06:15:37;;;;;;;12.98;8.85;;;22.80;99.90;;;;;;5037414;28;20037;-91
2022/05/17 06:18:04;;;;;;;14.57;9.07;;;22.80;99.90;;;;;;5020471;28;20448;-85
2022/05/17 06:20:30;;;;;;;10.82;8.23;;;22.80;99.90;;;;;;5041591;28;20025;-85
2022/05/17 06:22:56;;;;;;;15.43;8.90;;;22.60;99.90;;;;;;5039617;28;20099;-87
2022/05/17 06:25:22;;;;;;;14.20;8.57;;;22.60;99.90;;;;;;5042961;28;20072;-87
2022/05/17 06:27:48;;;;;;;14.32;9.65;;;22.60;99.90;;;;;;5023044;28;20029;-88
2022/05/17 06:30:14;;;;;;;14.48;9.57;;;22.60;99.90;;;;;;5040463;28;20045;-87
2022/05/17 06:32:40;;;;;;;13.38;9.65;;;22.60;99.90;;;;;;5024611;28;20027;-87
2022/05/17 06:35:07;;;;;;;19.08;10.02;;;22.70;99.90;;;;;;5023260;28;20029;-88
2022/05/17 06:37:33;;;;;;;15.07;8.98;;;22.80;99.90;;;;;;5044475;28;20045;-88
2022/05/17 06:39:59;;;;;;;14.27;9.20;;;22.80;99.90;;;;;;5020723;28;20075;-86
2022/05/17 06:42:27;;;;;;;11.65;8.57;;;22.70;99.90;;;;;;5042400;28;20037;-87
2022/05/17 06:44:54;;;;;;;16.17;9.23;;;22.40;99.90;;;;;;5046159;28;20057;-91
2022/05/17 06:47:23;;;;;;;11.73;8.10;;;22.20;99.90;;;;;;5042166;28;20471;-89
2022/05/17 06:49:51;;;;;;;16.33;12.57;;;22.10;99.90;;;;;;5037839;28;20411;-91
2022/05/17 06:52:17;;;;;;;23.10;15.77;;;21.90;99.90;;;;;;5040171;28;20387;-92
2022/05/17 06:54:43;;;;;;;27.13;17.52;;;21.80;99.90;;;;;;5040040;28;20029;-88
2022/05/17 06:57:12;;;;;;;30.02;19.75;;;21.70;99.90;;;;;;5041120;28;20242;-86
2022/05/17 06:59:39;;;;;;;24.70;19.00;;;21.60;99.90;;;;;;5028788;28;20040;-85
2022/05/17 07:02:06;;;;;;;23.80;20.40;;;21.60;99.90;;;;;;5037000;28;20524;-86
2022/05/17 07:04:33;;;;;;;20.65;16.77;;;21.50;99.90;;;;;;5044702;28;20021;-86
2022/05/17 07:07:00;;;;;;;32.58;16.10;;;21.30;99.90;;;;;;5041093;28;20196;-85
2022/05/17 07:09:27;;;;;;;24.13;13.60;;;21.20;99.90;;;;;;5045799;28;20067;-87
2022/05/17 07:14:37;;;;;;;14.85;12.93;;;21.20;99.90;;;;;;5045543;28;20083;-93
2022/05/17 07:17:09;;;;;;;18.77;13.40;;;21.20;99.90;;;;;;5045281;28;20040;-91
2022/05/17 07:19:35;;;;;;;17.92;15.00;;;21.20;99.90;;;;;;5050198;28;20210;-90
2022/05/17 07:22:02;;;;;;;22.17;14.18;;;21.20;99.90;;;;;;5041740;28;20087;-89
2022/05/17 07:24:31;;;;;;;25.05;13.98;;;21.30;99.90;;;;;;5039120;28;20026;-90
2022/05/17 07:26:58;;;;;;;17.95;13.48;;;21.20;99.90;;;;;;5042452;28;20032;-86
2022/05/17 07:29:24;;;;;;;18.65;13.40;;;21.20;99.90;;;;;;5022409;28;20076;-88
2022/05/17 07:31:50;;;;;;;21.48;13.23;;;21.20;99.90;;;;;;5042227;28;20025;-86
2022/05/17 07:34:16;;;;;;;16.02;13.68;;;21.40;99.90;;;;;;5048277;28;20048;-86
2022/05/17 07:36:42;;;;;;;21.02;14.88;;;21.50;99.90;;;;;;5039964;28;20029;-86
2022/05/17 07:39:08;;;;;;;18.17;13.27;;;21.50;99.90;;;;;;5045869;28;20029;-85
2022/05/17 07:41:35;;;;;;;14.35;11.93;;;21.60;99.90;;;;;;5041838;28;20041;-85
2022/05/17 07:44:02;;;;;;;16.00;12.48;;;21.80;99.90;;;;;;5044438;28;20069;-83
2022/05/17 07:46:28;;;;;;;22.20;12.48;;;22.00;99.90;;;;;;5042059;28;20017;-85
2022/05/17 07:48:54;;;;;;;15.13;11.75;;;22.30;99.90;;;;;;5038839;28;20412;-86
2022/05/17 07:51:20;;;;;;;14.77;11.40;;;22.60;99.90;;;;;;5036173;28;20025;-85
2022/05/17 07:53:46;;;;;;;16.83;12.73;;;23.10;99.90;;;;;;5039791;28;20041;-85
2022/05/17 07:56:13;;;;;;;19.45;12.68;;;23.50;99.90;;;;;;5017848;28;20037;-84
2022/05/17 07:58:39;;;;;;;16.08;11.55;;;23.90;99.90;;;;;;5043699;28;20059;-84
2022/05/17 08:01:05;;;;;;;27.00;14.50;;;24.00;99.90;;;;;;5043393;28;20550;-85
2022/05/17 08:03:31;;;;;;;20.38;12.80;;;23.70;99.90;;;;;;5039382;28;20031;-84
2022/05/17 08:05:57;;;;;;;28.75;14.82;;;23.50;99.90;;;;;;5021662;28;20112;-84
2022/05/17 08:08:23;;;;;;;19.33;12.20;;;23.40;99.90;;;;;;5039701;28;20116;-85
2022/05/17 08:10:49;;;;;;;18.30;12.23;;;23.20;99.90;;;;;;5037353;28;20468;-84
2022/05/17 08:13:16;;;;;;;19.35;12.52;;;23.20;99.90;;;;;;5041422;28;20075;-85
2022/05/17 08:15:43;;;;;;;19.45;12.95;;;23.10;99.90;;;;;;5028937;28;20021;-85
2022/05/17 08:18:08;;;;;;;18.40;12.73;;;23.10;99.90;;;;;;5026596;28;20037;-84
2022/05/17 08:20:35;;;;;;;19.88;12.55;;;23.20;99.90;;;;;;5034367;28;20025;-86
2022/05/17 08:23:01;;;;;;;21.00;12.77;;;23.10;99.90;;;;;;5039146;28;20443;-85
2022/05/17 08:28:15;;;;;;;25.08;14.10;;;23.20;99.90;;;;;;5037176;28;20032;-83
2022/05/17 08:30:44;;;;;;;22.77;12.30;;;23.30;99.90;;;;;;5029498;28;20025;-86
2022/05/17 08:33:16;;;;;;;24.98;13.10;;;23.30;99.90;;;;;;5039162;28;20511;-86
2022/05/17 08:35:56;;;;;;;16.38;10.60;;;23.40;99.90;;;;;;5036673;28;20021;-86
2022/05/17 08:38:27;;;;;;;20.77;12.75;;;23.10;99.90;;;;;;5038632;28;20568;-87
2022/05/17 08:41:08;;;;;;;16.70;11.75;;;23.20;99.90;;;;;;5044441;28;20472;-87
2022/05/17 08:43:56;;;;;;;14.65;11.93;;;23.20;99.90;;;;;;5037556;28;20035;-85
2022/05/17 08:46:42;;;;;;;19.73;11.27;;;23.30;99.90;;;;;;5037713;28;20084;-86
2022/05/17 08:49:23;;;;;;;16.95;11.20;;;23.10;99.90;;;;;;5020412;28;20128;-86
2022/05/17 08:52:07;;;;;;;15.00;11.70;;;23.00;99.90;;;;;;5036548;28;20029;-86
2022/05/17 08:54:49;;;;;;;13.25;11.45;;;22.90;99.90;;;;;;5034912;28;20057;-88
2022/05/17 08:57:43;;;;;;;17.88;11.02;;;23.00;99.90;;;;;;5038266;28;20538;-86
2022/05/17 09:00:24;;;;;;;13.20;8.88;;;23.00;99.90;;;;;;5029076;28;20029;-86
2022/05/17 09:03:03;;;;;;;32.50;13.10;;;23.20;99.90;;;;;;5036661;28;20024;-85
2022/05/17 09:05:46;;;;;;;13.32;8.75;;;23.40;99.90;;;;;;5034317;28;20016;-87
2022/05/17 09:08:38;;;;;;;12.43;8.00;;;23.60;99.90;;;;;;5036190;28;20116;-86
2022/05/17 09:11:35;;;;;;;14.40;9.53;;;23.60;99.90;;;;;;5032477;28;20033;-86
2022/05/17 09:14:15;;;;;;;15.15;8.52;;;23.60;99.90;;;;;;5037401;28;20275;-85
2022/05/17 09:17:04;;;;;;;21.10;10.73;;;23.40;99.90;;;;;;5039064;28;20025;-85
2022/05/17 09:19:29;;;;;;;20.05;9.30;;;23.20;99.90;;;;;;5042934;28;20029;-88
2022/05/17 09:21:58;;;;;;;15.20;10.35;;;23.10;99.90;;;;;;5038499;28;20067;-86
2022/05/17 09:24:30;;;;;;;13.38;9.77;;;23.20;99.90;;;;;;5021183;28;20021;-87
2022/05/17 09:27:07;;;;;;;10.35;7.45;;;23.30;99.90;;;;;;5039438;28;20031;-86
2022/05/17 09:29:43;;;;;;;10.85;8.43;;;23.30;99.90;;;;;;5043846;28;20120;-87
2022/05/17 09:32:11;;;;;;;23.63;10.32;;;23.50;99.90;;;;;;5039274;28;20048;-87
2022/05/17 09:34:41;;;;;;;16.63;9.32;;;23.40;99.90;;;;;;5033912;28;20377;-85
2022/05/17 09:37:10;;;;;;;13.82;8.75;;;23.30;99.90;;;;;;5037514;28;20484;-86
2022/05/17 09:39:36;;;;;;;17.48;8.30;;;23.20;99.90;;;;;;5016741;28;20041;-85
2022/05/17 09:42:07;;;;;;;15.30;9.80;;;23.20;99.90;;;;;;5034404;28;20025;-84
2022/05/17 09:44:39;;;;;;;14.43;10.80;;;23.00;99.90;;;;;;5034979;28;20120;-87
2022/05/17 09:47:06;;;;;;;18.23;12.60;;;22.90;99.90;;;;;;5038835;28;20571;-86
2022/05/17 09:52:32;;;;;;;18.30;12.60;;;22.90;99.90;;;;;;5038639;28;20079;-86
2022/05/17 09:55:15;;;;;;;19.35;12.57;;;23.00;99.90;;;;;;5028659;28;20029;-86
2022/05/17 09:57:53;;;;;;;16.38;11.27;;;22.90;99.90;;;;;;5017333;28;20610;-84
2022/05/17 10:00:50;;;;;;;17.77;12.00;;;22.90;99.90;;;;;;5035743;28;20427;-85
2022/05/17 10:03:16;;;;;;;15.23;11.60;;;23.00;99.90;;;;;;5041167;28;20407;-85
2022/05/17 10:06:03;;;;;;;14.77;10.10;;;23.20;99.90;;;;;;5035116;28;20021;-85
2022/05/17 10:08:44;;;;;;;24.05;12.23;;;23.30;99.90;;;;;;5042698;28;20116;-83
2022/05/17 10:11:13;;;;;;;18.88;12.85;;;23.20;99.90;;;;;;5040415;28;20017;-86
2022/05/17 10:13:50;;;;;;;15.43;12.60;;;23.20;99.90;;;;;;5043454;28;20024;-86
2022/05/17 10:16:23;;;;;;;12.80;11.23;;;23.00;99.90;;;;;;5018599;28;20034;-84
2022/05/17 10:19:03;;;;;;;15.70;12.70;;;23.00;99.90;;;;;;5044732;28;20068;-86
2022/05/17 10:21:38;;;;;;;27.55;14.13;;;23.10;99.90;;;;;;5039291;28;20027;-88
2022/05/17 10:24:27;;;;;;;22.00;13.68;;;23.00;99.90;;;;;;5044293;28;20029;-91
2022/05/17 10:27:03;;;;;;;22.60;12.52;;;22.90;99.90;;;;;;5048410;28;20513;-94
2022/05/17 10:29:36;;;;;;;15.30;12.15;;;23.00;99.90;;;;;;5021121;28;20085;-91
2022/05/17 10:32:25;;;;;;;13.85;11.27;;;23.00;99.90;;;;;;5037329;28;20032;-90
2022/05/17 10:34:54;;;;;;;14.63;11.13;;;23.20;99.90;;;;;;5019306;28;20033;-88
2022/05/17 10:37:25;;;;;;;13.15;9.80;;;23.40;99.90;;;;;;5042640;28;20043;-86
2022/05/17 10:39:54;;;;;;;25.70;11.07;;;23.40;99.90;;;;;;5040646;28;20060;-93
2022/05/17 10:42:21;;;;;;;63.65;18.30;;;23.30;99.90;;;;;;5026459;28;20029;-88
2022/05/17 10:44:52;;;;;;;35.60;14.25;;;23.30;99.90;;;;;;5052402;28;20468;-92
2022/05/17 10:47:39;;;;;;;24.95;12.23;;;23.40;99.90;;;;;;5041359;28;20036;-86
2022/05/17 10:50:23;;;;;;;22.67;11.63;;;23.30;99.90;;;;;;5022622;28;20710;-86
2022/05/17 10:53:04;;;;;;;31.85;15.93;;;23.40;99.90;;;;;;5037811;28;20057;-85
2022/05/17 10:55:36;;;;;;;25.10;13.20;;;23.40;99.90;;;;;;5037404;28;20040;-83
2022/05/17 10:58:15;;;;;;;14.40;11.07;;;23.50;99.90;;;;;;5042812;28;20041;-84
2022/05/17 11:00:50;;;;;;;19.65;10.88;;;23.40;99.90;;;;;;5035652;28;20033;-85
2022/05/17 11:03:44;;;;;;;14.30;10.10;;;23.20;99.90;;;;;;5042968;28;20029;-88
2022/05/17 11:06:40;;;;;;;13.88;9.82;;;23.40;99.90;;;;;;5033288;28;20506;-92
2022/05/17 11:09:22;;;;;;;17.20;9.18;;;23.50;99.90;;;;;;5021133;28;20051;-94
2022/05/17 11:12:04;;;;;;;14.15;9.40;;;23.40;99.90;;;;;;5041751;28;20053;-88
2022/05/17 11:14:36;;;;;;;14.02;9.80;;;23.50;99.90;;;;;;5045324;28;20032;-90
2022/05/17 11:17:40;;;;;;;11.90;9.07;;;23.40;99.90;;;;;;5034862;28;20120;-87
2022/05/17 11:20:27;;;;;;;13.38;8.10;;;23.50;99.90;;;;;;5030954;28;20369;-88
2022/05/17 11:23:11;;;;;;;11.25;7.07;;;23.50;99.90;;;;;;5033105;28;20037;-91
2022/05/17 11:25:52;;;;;;;10.88;8.10;;;23.50;99.90;;;;;;5045106;28;20071;-94
2022/05/17 11:28:44;;;;;;;12.00;8.40;;;23.70;99.90;;;;;;5024763;28;20024;-85
2022/05/17 11:31:15;;;;;;;8.18;6.93;;;23.90;99.90;;;;;;5038889;28;20067;-86
2022/05/17 11:33:42;;;;;;;10.75;6.40;;;24.10;99.90;;;;;;5039727;28;20041;-87
2022/05/17 11:36:20;;;;;;;12.85;7.22;;;24.20;99.90;;;;;;5036575;28;20056;-89
2022/05/17 11:38:49;;;;;;;7.82;6.35;;;24.40;99.90;;;;;;5040791;28;20125;-86
2022/05/17 11:41:21;;;;;;;12.10;6.90;;;24.50;99.90;;;;;;5043770;28;20108;-86
2022/05/17 11:43:55;;;;;;;11.77;6.95;;;24.50;99.90;;;;;;5022860;28;20028;-84
2022/05/17 11:46:24;;;;;;;10.60;7.32;;;24.60;99.90;;;;;;5042409;28;20443;-83
2022/05/17 11:49:16;;;;;;;13.10;7.90;;;24.70;99.90;;;;;;5039898;28;20049;-85
2022/05/17 11:51:57;;;;;;;14.07;8.65;;;24.70;99.90;;;;;;5037762;28;20037;-91
2022/05/17 11:54:46;;;;;;;14.13;9.60;;;24.60;99.90;;;;;;5044502;28;20021;-87
2022/05/17 11:57:21;;;;;;;15.05;8.50;;;24.20;99.90;;;;;;5040853;28;20037;-84
2022/05/17 11:59:55;;;;;;;13.40;7.68;;;24.50;99.90;;;;;;5036709;28;20483;-85
2022/05/17 12:02:43;;;;;;;11.57;8.32;;;27.40;99.90;;;;;;5040494;28;20033;-82
2022/05/17 12:05:33;;;;;;;8.90;8.00;;;30.60;99.90;;;;;;5033439;28;20013;-84
2022/05/17 12:08:26;;;;;;;15.65;7.75;;;32.30;99.90;;;;;;5038351;28;20060;-87
2022/05/17 12:11:00;;;;;;;11.68;7.00;;;32.90;99.90;;;;;;5044525;28;20477;-84
2022/05/17 12:13:29;;;;;;;11.40;7.43;;;33.70;99.90;;;;;;5038565;28;20028;-85
2022/05/17 12:15:54;;;;;;;5.90;4.47;;;33.60;99.90;;;;;;5038471;28;20642;-86
2022/05/17 12:18:43;;;;;;;7.85;5.40;;;33.40;99.90;;;;;;5039305;28;20428;-84
2022/05/17 12:21:30;;;;;;;9.48;6.40;;;33.90;99.90;;;;;;5038333;28;20013;-84
2022/05/17 12:24:22;;;;;;;11.60;6.43;;;34.60;99.90;;;;;;5025249;28;20020;-84
2022/05/17 12:27:12;;;;;;;6.72;5.82;;;34.20;99.90;;;;;;5035417;28;20029;-85
2022/05/17 12:32:36;;;;;;;5.57;3.67;;;34.40;99.90;;;;;;5040237;28;20111;-82
2022/05/17 12:35:04;;;;;;;7.72;4.90;;;34.50;99.90;;;;;;5036024;28;20017;-82
2022/05/17 12:37:31;;;;;;;12.07;5.05;;;35.30;99.90;;;;;;5038413;28;20516;-82
2022/05/17 12:43:03;;;;;;;7.35;4.05;;;37.20;99.90;;;;;;5033980;28;20083;-82
2022/05/17 12:45:32;;;;;;;8.45;4.00;;;38.40;97.70;;;;;;5035544;28;20020;-82
2022/05/17 12:48:10;;;;;;;6.75;4.47;;;38.40;95.40;;;;;;5038266;28;20025;-82
2022/05/17 12:50:51;;;;;;;4.32;3.30;;;38.30;96.60;;;;;;5043543;28;20037;-83
2022/05/17 12:53:28;;;;;;;5.55;4.47;;;38.10;94.70;;;;;;5038922;28;20049;-82
2022/05/17 12:55:58;;;;;;;6.45;4.63;;;37.30;96.90;;;;;;5043712;28;20056;-83
2022/05/17 12:58:24;;;;;;;9.38;7.47;;;37.40;96.90;;;;;;5023055;28;20064;-84
2022/05/17 13:00:55;;;;;;;10.43;7.43;;;37.20;98.70;;;;;;5042728;28;20102;-83
2022/05/17 13:03:24;;;;;;;11.52;7.60;;;35.00;99.90;;;;;;5040377;28;20017;-82
2022/05/17 13:05:53;;;;;;;9.75;6.32;;;35.00;99.90;;;;;;5042128;28;20022;-84
2022/05/17 13:08:24;;;;;;;7.53;5.32;;;35.00;99.40;;;;;;5040864;28;20057;-83
2022/05/17 13:11:09;;;;;;;8.73;4.45;;;34.50;98.90;;;;;;5043675;28;20403;-83
2022/05/17 13:13:37;;;;;;;7.90;4.30;;;34.70;97.10;;;;;;5024103;28;20030;-82